KDUC/DUC METAR and TAF weather

Enter ICAO airport designator
Station Type Date Time Source
KDUC METAR 2022/09/26 09:15 UTC NOAA

KDUC 260915Z AUTO 32005KT 10SM CLR 15/06 A3016 RMK AO2 T01540060


Station Type Date Time Source
KDUC Decoded METAR 2022/09/26 09:15 UTC NOAA

Duncan, Halliburton Field Airport, OK, United States (KDUC) 34-28-15N 097-57-36W
Sep 26, 2022 - 05:15 AM EDT / 2022.09.26 0915 UTC
Wind: from the NW (320 degrees) at 6 MPH (5 KT):0
Visibility: 10 mile(s):0
Sky conditions: clear
Temperature: 59.7 F (15.4 C)
Dew Point: 42.8 F (6.0 C)
Relative Humidity: 53%
Pressure (altimeter): 30.16 in. Hg (1021 hPa)
ob: KDUC 260915Z AUTO 32005KT 10SM CLR 15/06 A3016 RMK AO2 T01540060
cycle: 9

Station Type Date Time Source
KDUC TAF UTC NOAA

Error!

Example: see airport list